IPAP LSGS-LFLP
Flight info
| Callsign | IPAP |
|---|---|
| Flight time | 0h 36m |
| Altitude | 9000 |
| Route | GOLEB1V GOLEB DCT SALEV SALEV3P |
| Aircraft | SF50/L-SDE3/L |
Departure
| Time | 2026-05-09 15:30 |
|---|---|
| Airport | Sion Airport (LSGS) |
Arrival
| Time | 2026-05-09 16:06 |
|---|---|
| Airport | Annecy Meythet airport (LFLP) |
| Time | Latitude | Longitude | Altitude | Speed | Heading |
|---|---|---|---|---|---|
| 2026-05-09 15:21 | 46.22016 | 7.33647 | 1578 ft | 0 kts | 302° |
| 2026-05-09 15:28 | 46.22023 | 7.33642 | 1578 ft | 4 kts | 351° |
| 2026-05-09 15:29 | 46.22059 | 7.33688 | 1578 ft | 11 kts | 68° |
| 2026-05-09 15:29 | 46.22094 | 7.33841 | 1578 ft | 21 kts | 73° |
| 2026-05-09 15:29 | 46.22143 | 7.33949 | 1578 ft | 12 kts | 353° |
| 2026-05-09 15:29 | 46.22197 | 7.33900 | 1577 ft | 10 kts | 252° |
| 2026-05-09 15:30 | 46.22135 | 7.33624 | 1577 ft | 65 kts | 252° |
| 2026-05-09 15:30 | 46.21922 | 7.32669 | 1631 ft | 127 kts | 251° |
| 2026-05-09 15:30 | 46.21628 | 7.31378 | 2092 ft | 144 kts | 252° |
| 2026-05-09 15:30 | 46.21257 | 7.29781 | 2382 ft | 194 kts | 251° |
| 2026-05-09 15:31 | 46.20775 | 7.27707 | 2536 ft | 237 kts | 251° |
| 2026-05-09 15:31 | 46.20541 | 7.25245 | 2698 ft | 258 kts | 272° |
| 2026-05-09 15:31 | 46.20633 | 7.22689 | 3506 ft | 247 kts | 278° |
| 2026-05-09 15:31 | 46.21068 | 7.20430 | 4815 ft | 219 kts | 291° |
| 2026-05-09 15:32 | 46.21545 | 7.18423 | 5949 ft | 207 kts | 279° |
| 2026-05-09 15:32 | 46.21424 | 7.16330 | 6817 ft | 210 kts | 262° |
| 2026-05-09 15:32 | 46.21306 | 7.14390 | 8093 ft | 186 kts | 274° |
| 2026-05-09 15:32 | 46.21643 | 7.12488 | 8734 ft | 207 kts | 288° |
| 2026-05-09 15:33 | 46.22298 | 7.10609 | 9206 ft | 227 kts | 300° |
| 2026-05-09 15:33 | 46.23615 | 7.09001 | 9000 ft | 271 kts | 335° |
| 2026-05-09 15:33 | 46.25438 | 7.08756 | 8945 ft | 269 kts | 13° |
| 2026-05-09 15:33 | 46.27048 | 7.10091 | 8944 ft | 259 kts | 48° |
| 2026-05-09 15:34 | 46.27822 | 7.12342 | 8941 ft | 254 kts | 76° |
| 2026-05-09 15:34 | 46.28121 | 7.14863 | 8956 ft | 253 kts | 85° |
| 2026-05-09 15:34 | 46.28202 | 7.17387 | 8947 ft | 248 kts | 91° |
| 2026-05-09 15:34 | 46.28081 | 7.19848 | 8930 ft | 247 kts | 98° |
| 2026-05-09 15:35 | 46.27735 | 7.22295 | 8927 ft | 249 kts | 104° |
| 2026-05-09 15:35 | 46.27420 | 7.24710 | 9027 ft | 234 kts | 102° |
| 2026-05-09 15:35 | 46.26938 | 7.26834 | 9085 ft | 211 kts | 115° |
| 2026-05-09 15:35 | 46.26209 | 7.28535 | 9116 ft | 190 kts | 130° |
| 2026-05-09 15:36 | 46.25259 | 7.29802 | 9011 ft | 188 kts | 145° |
| 2026-05-09 15:36 | 46.24075 | 7.30584 | 8855 ft | 188 kts | 167° |
| 2026-05-09 15:36 | 46.22846 | 7.30640 | 9172 ft | 176 kts | 188° |
| 2026-05-09 15:36 | 46.21656 | 7.29940 | 9525 ft | 191 kts | 213° |
| 2026-05-09 15:37 | 46.20804 | 7.28487 | 9897 ft | 196 kts | 242° |
| 2026-05-09 15:37 | 46.20204 | 7.26536 | 9947 ft | 226 kts | 244° |
| 2026-05-09 15:37 | 46.19444 | 7.24461 | 9951 ft | 246 kts | 234° |
| 2026-05-09 15:37 | 46.18372 | 7.22490 | 9949 ft | 252 kts | 229° |
| 2026-05-09 15:38 | 46.17272 | 7.20531 | 10103 ft | 243 kts | 232° |
| 2026-05-09 15:38 | 46.16345 | 7.18643 | 10504 ft | 218 kts | 235° |
| 2026-05-09 15:38 | 46.15543 | 7.16924 | 10833 ft | 196 kts | 232° |
| 2026-05-09 15:38 | 46.14722 | 7.15228 | 10951 ft | 222 kts | 232° |
| 2026-05-09 15:39 | 46.13824 | 7.13389 | 11437 ft | 217 kts | 234° |
| 2026-05-09 15:39 | 46.13017 | 7.11711 | 12502 ft | 191 kts | 235° |
| 2026-05-09 15:39 | 46.12257 | 7.10147 | 12961 ft | 202 kts | 235° |
| 2026-05-09 15:39 | 46.11400 | 7.08381 | 12981 ft | 227 kts | 235° |
| 2026-05-09 15:40 | 46.09551 | 7.04583 | 12998 ft | 254 kts | 235° |
| 2026-05-09 15:40 | 46.05597 | 6.96458 | 13995 ft | 257 kts | 235° |
| 2026-05-09 15:40 | 46.03099 | 6.91359 | 14013 ft | 265 kts | 235° |
| 2026-05-09 15:40 | 46.02043 | 6.89189 | 14020 ft | 264 kts | 235° |
| 2026-05-09 15:41 | 46.00990 | 6.87025 | 14009 ft | 265 kts | 236° |
| 2026-05-09 15:41 | 45.99932 | 6.84846 | 14020 ft | 265 kts | 236° |
| 2026-05-09 15:41 | 45.98877 | 6.82664 | 14012 ft | 265 kts | 235° |
| 2026-05-09 15:41 | 45.98168 | 6.81230 | 14007 ft | 265 kts | 236° |
| 2026-05-09 15:42 | 45.97100 | 6.79068 | 14008 ft | 265 kts | 235° |
| 2026-05-09 15:42 | 45.96038 | 6.76894 | 14009 ft | 265 kts | 236° |
| 2026-05-09 15:42 | 45.95011 | 6.73787 | 13995 ft | 263 kts | 263° |
| 2026-05-09 15:42 | 45.95138 | 6.72037 | 13992 ft | 262 kts | 285° |
| 2026-05-09 15:43 | 45.96138 | 6.69865 | 13989 ft | 273 kts | 317° |
| 2026-05-09 15:43 | 45.97865 | 6.68741 | 13997 ft | 275 kts | 346° |
| 2026-05-09 15:43 | 45.99639 | 6.67758 | 13988 ft | 275 kts | 323° |
| 2026-05-09 15:43 | 46.00886 | 6.65721 | 13981 ft | 271 kts | 301° |
| 2026-05-09 15:44 | 46.01827 | 6.63374 | 13986 ft | 272 kts | 297° |
| 2026-05-09 15:44 | 46.02815 | 6.61024 | 13992 ft | 275 kts | 301° |
| 2026-05-09 15:44 | 46.03918 | 6.58783 | 13986 ft | 274 kts | 304° |
| 2026-05-09 15:44 | 46.04829 | 6.56450 | 13973 ft | 269 kts | 289° |
| 2026-05-09 15:45 | 46.05272 | 6.53847 | 13977 ft | 269 kts | 275° |
| 2026-05-09 15:45 | 46.05391 | 6.51161 | 13964 ft | 269 kts | 271° |
| 2026-05-09 15:45 | 46.05521 | 6.48464 | 13967 ft | 271 kts | 272° |
| 2026-05-09 15:45 | 46.05655 | 6.45741 | 13970 ft | 274 kts | 272° |
| 2026-05-09 15:46 | 46.05781 | 6.42999 | 13972 ft | 276 kts | 272° |
| 2026-05-09 15:46 | 46.05909 | 6.40233 | 13972 ft | 278 kts | 272° |
| 2026-05-09 15:46 | 46.06030 | 6.37447 | 13971 ft | 279 kts | 272° |
| 2026-05-09 15:46 | 46.06152 | 6.34681 | 13971 ft | 281 kts | 271° |
| 2026-05-09 15:47 | 46.06279 | 6.31863 | 13970 ft | 282 kts | 272° |
| 2026-05-09 15:47 | 46.06406 | 6.29039 | 13970 ft | 283 kts | 272° |
| 2026-05-09 15:47 | 46.06532 | 6.26200 | 13973 ft | 284 kts | 271° |
| 2026-05-09 15:47 | 46.06655 | 6.23363 | 13974 ft | 285 kts | 271° |
| 2026-05-09 15:48 | 46.06780 | 6.20491 | 13974 ft | 286 kts | 271° |
| 2026-05-09 15:48 | 46.06904 | 6.17658 | 13972 ft | 288 kts | 271° |
| 2026-05-09 15:48 | 46.07030 | 6.14760 | 13971 ft | 290 kts | 271° |
| 2026-05-09 15:48 | 46.07154 | 6.11858 | 13974 ft | 292 kts | 271° |
| 2026-05-09 15:49 | 46.07079 | 6.09052 | 13961 ft | 269 kts | 259° |
| 2026-05-09 15:49 | 46.06587 | 6.06497 | 13956 ft | 267 kts | 247° |
| 2026-05-09 15:49 | 46.04899 | 6.02646 | 13956 ft | 261 kts | 226° |
| 2026-05-09 15:49 | 46.00021 | 5.94931 | 13958 ft | 267 kts | 226° |
| 2026-05-09 15:50 | 45.98570 | 5.92636 | 13966 ft | 269 kts | 226° |
| 2026-05-09 15:50 | 45.97348 | 5.90575 | 13818 ft | 271 kts | 228° |
| 2026-05-09 15:50 | 45.96125 | 5.88537 | 13536 ft | 270 kts | 227° |
| 2026-05-09 15:50 | 45.94904 | 5.86508 | 13112 ft | 265 kts | 228° |
| 2026-05-09 15:51 | 45.93630 | 5.84640 | 12688 ft | 260 kts | 218° |
| 2026-05-09 15:51 | 45.92237 | 5.82966 | 12278 ft | 261 kts | 219° |
| 2026-05-09 15:51 | 45.90872 | 5.81275 | 11875 ft | 258 kts | 219° |
| 2026-05-09 15:51 | 45.89515 | 5.79589 | 11472 ft | 256 kts | 219° |
| 2026-05-09 15:52 | 45.86831 | 5.76287 | 10688 ft | 254 kts | 218° |
| 2026-05-09 15:52 | 45.83601 | 5.72314 | 9745 ft | 249 kts | 218° |
| 2026-05-09 15:52 | 45.79033 | 5.65226 | 8849 ft | 254 kts | 245° |
| 2026-05-09 15:53 | 45.81269 | 5.56471 | 7697 ft | 255 kts | 334° |
| 2026-05-09 15:53 | 45.87034 | 5.59802 | 6436 ft | 238 kts | 71° |
| 2026-05-09 15:53 | 45.87314 | 5.62699 | 6454 ft | 245 kts | 96° |
| 2026-05-09 15:53 | 45.87026 | 5.65095 | 6447 ft | 243 kts | 100° |
| 2026-05-09 15:54 | 45.86922 | 5.65980 | 6455 ft | 243 kts | 99° |
| 2026-05-09 15:54 | 45.86853 | 5.67875 | 6449 ft | 244 kts | 85° |
| 2026-05-09 15:55 | 45.87184 | 5.70265 | 6455 ft | 244 kts | 77° |
| 2026-05-09 15:55 | 45.87544 | 5.72647 | 6456 ft | 245 kts | 79° |
| 2026-05-09 15:55 | 45.87854 | 5.74976 | 6451 ft | 227 kts | 79° |
| 2026-05-09 15:55 | 45.88137 | 5.77067 | 6452 ft | 204 kts | 79° |
| 2026-05-09 15:56 | 45.88400 | 5.78955 | 6446 ft | 181 kts | 79° |
| 2026-05-09 15:56 | 45.88628 | 5.80611 | 6445 ft | 159 kts | 79° |
| 2026-05-09 15:56 | 45.88831 | 5.82082 | 6450 ft | 143 kts | 79° |
| 2026-05-09 15:56 | 45.89023 | 5.83481 | 6297 ft | 149 kts | 79° |
| 2026-05-09 15:57 | 45.89231 | 5.84987 | 5957 ft | 157 kts | 79° |
| 2026-05-09 15:57 | 45.89445 | 5.86552 | 5613 ft | 161 kts | 79° |
| 2026-05-09 15:57 | 45.89454 | 5.88127 | 5264 ft | 162 kts | 107° |
| 2026-05-09 15:57 | 45.88044 | 5.92583 | 4223 ft | 167 kts | 143° |
| 2026-05-09 15:58 | 45.84753 | 5.91723 | 3067 ft | 162 kts | 243° |
| 2026-05-09 15:58 | 45.84376 | 5.90263 | 2951 ft | 146 kts | 254° |
| 2026-05-09 15:58 | 45.83901 | 5.89093 | 2948 ft | 132 kts | 223° |
| 2026-05-09 15:58 | 45.83207 | 5.88305 | 3124 ft | 121 kts | 222° |
| 2026-05-09 15:59 | 45.82679 | 5.87403 | 3361 ft | 117 kts | 241° |
| 2026-05-09 15:59 | 45.82231 | 5.86323 | 3214 ft | 150 kts | 230° |
| 2026-05-09 15:59 | 45.81273 | 5.85635 | 3410 ft | 148 kts | 189° |
| 2026-05-09 15:59 | 45.80215 | 5.85773 | 3366 ft | 170 kts | 161° |
| 2026-05-09 16:00 | 45.79186 | 5.86749 | 3426 ft | 181 kts | 130° |
| 2026-05-09 16:00 | 45.78800 | 5.87787 | 3616 ft | 174 kts | 112° |
| 2026-05-09 16:00 | 45.78117 | 5.89669 | 3989 ft | 146 kts | 119° |
| 2026-05-09 16:00 | 45.77898 | 5.91030 | 4262 ft | 140 kts | 86° |
| 2026-05-09 16:01 | 45.78070 | 5.92389 | 4569 ft | 138 kts | 66° |
| 2026-05-09 16:01 | 45.78585 | 5.93496 | 4860 ft | 139 kts | 44° |
| 2026-05-09 16:01 | 45.79382 | 5.94440 | 4683 ft | 149 kts | 35° |
| 2026-05-09 16:01 | 45.80162 | 5.95326 | 4476 ft | 138 kts | 37° |
| 2026-05-09 16:02 | 45.80880 | 5.96153 | 4450 ft | 131 kts | 36° |
| 2026-05-09 16:02 | 45.82366 | 5.97838 | 4404 ft | 140 kts | 37° |
| 2026-05-09 16:02 | 45.83129 | 5.98711 | 4203 ft | 138 kts | 37° |
| 2026-05-09 16:03 | 45.83878 | 5.99564 | 3996 ft | 137 kts | 36° |
| 2026-05-09 16:03 | 45.84619 | 6.00411 | 3786 ft | 137 kts | 37° |
| 2026-05-09 16:03 | 45.85327 | 6.01216 | 3588 ft | 123 kts | 37° |
| 2026-05-09 16:03 | 45.86033 | 6.02023 | 3397 ft | 135 kts | 36° |
| 2026-05-09 16:04 | 45.86763 | 6.02858 | 3198 ft | 132 kts | 34° |
| 2026-05-09 16:04 | 45.87483 | 6.03659 | 2988 ft | 135 kts | 35° |
| 2026-05-09 16:04 | 45.88215 | 6.04502 | 2784 ft | 128 kts | 36° |
| 2026-05-09 16:04 | 45.88862 | 6.05250 | 2588 ft | 115 kts | 35° |
| 2026-05-09 16:05 | 45.89466 | 6.05933 | 2424 ft | 108 kts | 34° |
| 2026-05-09 16:05 | 45.90045 | 6.06586 | 2253 ft | 103 kts | 35° |
| 2026-05-09 16:05 | 45.90590 | 6.07232 | 2084 ft | 100 kts | 37° |
| 2026-05-09 16:05 | 45.91124 | 6.07855 | 1934 ft | 103 kts | 32° |
| 2026-05-09 16:06 | 45.91679 | 6.08502 | 1775 ft | 103 kts | 41° |
| 2026-05-09 16:06 | 45.92238 | 6.09124 | 1622 ft | 96 kts | 30° |
| 2026-05-09 16:06 | 45.92714 | 6.09662 | 1514 ft | 79 kts | 26° |
| 2026-05-09 16:06 | 45.93026 | 6.09997 | 1514 ft | 39 kts | 41° |
| 2026-05-09 16:07 | 45.93184 | 6.10183 | 1519 ft | 24 kts | 38° |
| 2026-05-09 16:07 | 45.93253 | 6.10320 | 1520 ft | 14 kts | 115° |
| 2026-05-09 16:07 | 45.93219 | 6.10389 | 1519 ft | 0 kts | 128° |
| 2026-05-09 16:08 | 45.93205 | 6.10411 | 1519 ft | 8 kts | 129° |
| 2026-05-09 16:08 | 45.93157 | 6.10497 | 1518 ft | 15 kts | 129° |
| 2026-05-09 16:09 | 45.93117 | 6.10536 | 1518 ft | 1 kts | 125° |
| 2026-05-09 16:09 | 45.93105 | 6.10535 | 1518 ft | 3 kts | 212° |
| 2026-05-09 16:09 | 45.93101 | 6.10532 | 1518 ft | 0 kts | 213° |